createdAt,value
2017-07-14T00:01:00.294Z,96745.92
2017-07-14T00:03:26.145Z,96749.75
2017-07-14T00:05:52.041Z,96754.47
2017-07-14T00:08:17.910Z,96733.36
2017-07-14T00:10:43.802Z,96759.37
2017-07-14T00:13:09.677Z,96759.76
2017-07-14T00:18:01.405Z,96764.67
2017-07-14T00:20:27.227Z,96760.09
2017-07-14T00:22:53.040Z,96746.13
2017-07-14T00:25:18.893Z,96745.48
2017-07-14T00:27:44.768Z,96750.66
2017-07-14T00:30:10.674Z,96749.03
2017-07-14T00:32:36.589Z,96740.66
2017-07-14T00:35:02.550Z,96732.13
2017-07-14T00:37:29.189Z,96732.66
2017-07-14T00:39:55.057Z,96729.28
2017-07-14T00:42:20.893Z,96738.45
2017-07-14T00:44:46.800Z,96736.65
2017-07-14T00:47:12.789Z,96742.99
2017-07-14T00:49:38.640Z,96748.89
2017-07-14T00:52:04.524Z,96756.42
2017-07-14T00:54:31.359Z,96760.83
2017-07-14T00:56:57.190Z,96758.87
2017-07-14T00:59:23.278Z,96751.36
2017-07-14T01:01:49.175Z,96735.32
2017-07-14T01:04:15.132Z,96734.34
2017-07-14T01:06:41.021Z,96729.67
2017-07-14T01:09:06.829Z,96726.52
2017-07-14T01:11:32.679Z,96662.91
2017-07-14T01:13:58.509Z,96671.41
2017-07-14T01:16:24.396Z,96722.00
2017-07-14T01:18:50.318Z,96720.52
2017-07-14T01:21:16.154Z,96715.61
2017-07-14T01:23:42.004Z,96687.84
2017-07-14T01:26:07.822Z,96716.52
2017-07-14T01:28:33.671Z,96710.85
2017-07-14T01:30:59.516Z,96712.03
2017-07-14T01:33:25.485Z,96706.84
2017-07-14T01:35:51.310Z,96702.48
2017-07-14T01:38:17.128Z,96707.23
2017-07-14T01:40:43.013Z,96702.38
2017-07-14T01:43:08.912Z,96704.42
2017-07-14T01:45:34.739Z,96672.52
2017-07-14T01:48:00.604Z,96703.39
2017-07-14T01:50:26.455Z,96703.57
2017-07-14T01:52:52.303Z,96704.89
2017-07-14T01:55:18.223Z,96696.44
2017-07-14T01:57:44.100Z,96653.83
2017-07-14T02:00:09.980Z,96702.86
2017-07-14T02:02:35.868Z,96694.81
2017-07-14T02:05:01.725Z,96646.94
2017-07-14T02:07:27.558Z,96686.84
2017-07-14T02:09:53.414Z,96683.13
2017-07-14T02:12:19.275Z,96688.02
2017-07-14T02:14:45.272Z,96690.12
2017-07-14T02:17:11.219Z,96682.79
2017-07-14T02:19:37.052Z,96688.25
2017-07-14T02:22:02.952Z,96688.22
2017-07-14T02:24:28.869Z,96693.41
2017-07-14T02:26:54.748Z,96694.75
2017-07-14T02:29:20.842Z,96693.63
2017-07-14T02:31:46.726Z,96698.86
2017-07-14T02:34:12.594Z,96702.34
2017-07-14T02:36:38.440Z,96695.48
2017-07-14T02:39:04.284Z,96698.69
2017-07-14T02:41:30.215Z,96694.41
2017-07-14T02:43:56.043Z,96693.70
2017-07-14T02:46:21.897Z,96701.39
2017-07-14T02:48:47.771Z,96698.10
2017-07-14T02:51:13.712Z,96702.82
2017-07-14T02:53:39.596Z,96702.47
2017-07-14T02:56:05.541Z,96699.11
2017-07-14T02:58:31.444Z,96638.35
2017-07-14T03:00:57.450Z,96673.38
2017-07-14T03:03:23.408Z,96693.04
2017-07-14T03:05:49.224Z,96690.58
2017-07-14T03:08:15.117Z,96696.67
2017-07-14T03:10:41.062Z,96702.91
2017-07-14T03:13:06.892Z,96665.27
2017-07-14T03:15:32.786Z,96687.25
2017-07-14T03:17:58.715Z,96684.20
2017-07-14T03:20:24.586Z,96687.69
2017-07-14T03:22:50.464Z,96682.91
2017-07-14T03:25:16.360Z,96683.63
2017-07-14T03:27:42.226Z,96683.20
2017-07-14T03:30:08.099Z,96684.77
2017-07-14T03:32:34.025Z,96683.99
2017-07-14T03:34:59.868Z,96640.43
2017-07-14T03:37:25.728Z,96676.07
2017-07-14T03:39:51.560Z,96686.36
2017-07-14T03:42:17.434Z,96685.37
2017-07-14T03:44:43.341Z,96657.48
2017-07-14T03:47:09.136Z,96684.95
2017-07-14T03:49:34.934Z,96680.81
2017-07-14T03:52:00.808Z,96675.59
2017-07-14T03:54:26.689Z,96685.30
2017-07-14T03:56:52.494Z,96683.44
2017-07-14T03:59:18.357Z,96686.66
2017-07-14T04:01:44.276Z,96686.89
2017-07-14T04:04:10.112Z,96689.88
2017-07-14T04:06:35.901Z,96696.81
2017-07-14T04:09:01.685Z,96692.80
2017-07-14T04:11:27.546Z,96704.19
2017-07-14T04:13:53.348Z,96697.03
2017-07-14T04:16:19.181Z,96698.40
2017-07-14T04:18:51.806Z,96692.56
2017-07-14T04:21:17.630Z,96697.88
2017-07-14T04:23:43.462Z,96700.31
2017-07-14T04:26:09.271Z,96702.63
2017-07-14T04:28:35.131Z,96695.59
2017-07-14T04:31:01.058Z,96693.44
2017-07-14T04:33:26.922Z,96697.55
2017-07-14T04:35:52.714Z,96700.62
2017-07-14T04:38:18.530Z,96708.60
2017-07-14T04:40:44.366Z,96708.13
2017-07-14T04:43:10.178Z,96710.52
2017-07-14T04:45:35.968Z,96707.13
2017-07-14T04:48:01.805Z,96709.97
2017-07-14T04:50:27.606Z,96686.67
2017-07-14T04:52:53.404Z,96709.65
2017-07-14T04:55:19.250Z,96709.64
2017-07-14T04:57:45.058Z,96693.89
2017-07-14T05:00:10.881Z,96704.44
2017-07-14T05:02:36.678Z,96683.56
2017-07-14T05:05:02.513Z,96712.91
2017-07-14T05:07:28.366Z,96712.80
2017-07-14T05:09:54.146Z,96712.27
2017-07-14T05:12:20.041Z,96729.51
2017-07-14T05:14:45.857Z,96703.69
2017-07-14T05:17:11.687Z,96700.62
2017-07-14T05:19:37.581Z,96697.96
2017-07-14T05:22:03.430Z,96696.24
2017-07-14T05:24:29.285Z,96696.94
2017-07-14T05:26:55.077Z,96689.45
2017-07-14T05:29:20.873Z,96639.58
2017-07-14T05:31:46.714Z,96688.83
2017-07-14T05:34:12.557Z,96665.33
2017-07-14T05:36:38.418Z,96685.78
2017-07-14T05:39:04.227Z,96679.24
2017-07-14T05:41:30.089Z,96681.56
2017-07-14T05:43:55.988Z,96668.30
2017-07-14T05:46:21.881Z,96640.81
2017-07-14T05:48:47.770Z,96654.59
2017-07-14T05:51:13.729Z,96661.92
2017-07-14T05:53:39.550Z,96665.59
2017-07-14T05:56:05.599Z,96674.76
2017-07-14T05:58:31.593Z,96681.44
2017-07-14T06:00:57.435Z,96684.89
2017-07-14T06:03:23.227Z,96683.94
2017-07-14T06:05:49.050Z,96685.06
2017-07-14T06:08:14.929Z,96680.01
2017-07-14T06:10:40.829Z,96686.80
2017-07-14T06:13:06.661Z,96688.19
2017-07-14T06:15:32.457Z,96682.86
2017-07-14T06:17:58.259Z,96666.62
2017-07-14T06:20:24.111Z,96677.01
2017-07-14T06:22:49.976Z,96673.51
2017-07-14T06:25:15.798Z,96679.76
2017-07-14T06:27:41.582Z,96676.02
2017-07-14T06:30:07.372Z,96669.94
2017-07-14T06:32:33.213Z,96677.45
2017-07-14T06:34:59.009Z,96678.13
2017-07-14T06:37:24.818Z,96648.75
2017-07-14T06:39:50.669Z,96682.56
2017-07-14T06:42:16.461Z,96672.85
2017-07-14T06:44:42.275Z,96681.96
2017-07-14T06:47:08.110Z,96670.37
2017-07-14T06:49:33.937Z,96660.05
2017-07-14T06:51:59.765Z,96689.00
2017-07-14T06:54:25.690Z,96690.91
2017-07-14T06:56:51.561Z,96696.13
2017-07-14T06:59:17.358Z,96685.87
2017-07-14T07:01:43.198Z,96685.84
2017-07-14T07:04:08.976Z,96675.58
2017-07-14T07:06:34.753Z,96682.02
2017-07-14T07:09:00.579Z,96679.13
2017-07-14T07:11:26.486Z,96684.70
2017-07-14T07:13:52.334Z,96658.81
2017-07-14T07:16:18.129Z,96689.25
2017-07-14T07:18:43.910Z,96688.38
2017-07-14T07:21:10.805Z,96692.13
2017-07-14T07:23:36.600Z,96689.45
2017-07-14T07:26:02.530Z,96691.28
2017-07-14T07:28:28.324Z,96695.16
2017-07-14T07:30:54.158Z,96690.66
2017-07-14T07:33:19.947Z,96691.27
2017-07-14T07:35:45.725Z,96698.06
2017-07-14T07:38:11.529Z,96695.94
2017-07-14T07:40:37.404Z,96696.20
2017-07-14T07:43:03.260Z,96685.71
2017-07-14T07:45:29.060Z,96702.69
2017-07-14T07:48:00.961Z,96704.48
2017-07-14T07:50:26.794Z,96708.68
2017-07-14T07:52:52.598Z,96705.41
2017-07-14T07:55:18.450Z,96708.83
2017-07-14T07:57:44.237Z,96709.29
2017-07-14T08:00:10.030Z,96698.64
2017-07-14T08:02:56.661Z,96710.93
2017-07-14T08:05:22.538Z,96703.25
2017-07-14T08:07:48.398Z,96703.39
2017-07-14T08:10:14.202Z,96701.30
2017-07-14T08:12:40.115Z,96697.67
2017-07-14T08:15:05.912Z,96695.81
2017-07-14T08:17:31.689Z,96699.69
2017-07-14T08:19:58.045Z,96693.53
2017-07-14T08:22:23.917Z,96700.73
2017-07-14T08:24:49.738Z,96701.66
2017-07-14T08:27:15.581Z,96704.41
2017-07-14T08:29:41.383Z,96708.22
2017-07-14T08:32:07.220Z,96713.05
2017-07-14T08:34:33.021Z,96710.53
2017-07-14T08:36:58.844Z,96707.98
2017-07-14T08:39:24.651Z,96708.37
2017-07-14T08:41:50.438Z,96711.99
2017-07-14T08:44:16.270Z,96706.95
2017-07-14T08:46:42.076Z,96708.83
2017-07-14T08:49:07.930Z,96715.19
2017-07-14T08:51:33.719Z,96677.76
2017-07-14T08:53:59.543Z,96711.86
2017-07-14T08:56:25.399Z,96714.73
2017-07-14T08:58:51.244Z,96707.90
2017-07-14T09:01:17.031Z,96704.45
2017-07-14T09:03:42.845Z,96678.06
2017-07-14T09:06:08.632Z,96714.55
2017-07-14T09:08:34.539Z,96687.09
2017-07-14T09:11:00.331Z,96706.79
2017-07-14T09:13:26.140Z,96706.63
2017-07-14T09:15:51.929Z,96705.84
2017-07-14T09:18:17.819Z,96704.77
2017-07-14T09:20:43.622Z,96700.27
2017-07-14T09:23:09.413Z,96701.69
2017-07-14T09:25:35.266Z,96710.98
2017-07-14T09:28:01.078Z,96711.80
2017-07-14T09:30:26.902Z,96710.20
2017-07-14T09:32:52.711Z,96711.13
2017-07-14T09:35:18.505Z,96705.19
2017-07-14T09:37:44.340Z,96703.19
2017-07-14T09:40:10.131Z,96714.06
2017-07-14T09:42:35.922Z,96708.87
2017-07-14T09:45:01.745Z,96718.38
2017-07-14T09:47:27.644Z,96717.86
2017-07-14T09:49:53.488Z,96720.02
2017-07-14T09:52:26.334Z,96711.53
2017-07-14T09:54:52.178Z,96720.88
2017-07-14T09:57:18.045Z,96708.09
2017-07-14T09:59:43.861Z,96716.09
2017-07-14T10:02:09.689Z,96706.94
2017-07-14T10:04:35.564Z,96710.53
2017-07-14T10:07:01.568Z,96714.01
2017-07-14T10:09:27.533Z,96702.28
2017-07-14T10:11:53.341Z,96707.12
2017-07-14T10:14:19.238Z,96708.34
2017-07-14T10:16:45.143Z,96710.30
2017-07-14T10:19:11.093Z,96677.08
2017-07-14T10:21:36.993Z,96705.84
2017-07-14T10:24:02.814Z,96706.38
2017-07-14T10:26:28.663Z,96706.44
2017-07-14T10:28:54.505Z,96702.50
2017-07-14T10:31:20.357Z,96692.63
2017-07-14T10:33:46.156Z,96699.94
2017-07-14T10:36:12.010Z,96701.71
2017-07-14T10:38:37.925Z,96695.77
2017-07-14T10:41:03.845Z,96700.05
2017-07-14T10:43:29.700Z,96701.65
2017-07-14T10:46:02.434Z,96696.30
2017-07-14T10:48:28.299Z,96696.38
2017-07-14T10:50:54.188Z,96698.13
2017-07-14T10:53:20.014Z,96698.73
2017-07-14T10:55:45.946Z,96691.27
2017-07-14T10:58:12.172Z,96704.67
2017-07-14T11:00:38.047Z,96694.58
2017-07-14T11:03:03.849Z,96689.58
2017-07-14T11:05:29.733Z,96689.39
2017-07-14T11:07:55.568Z,96683.09
2017-07-14T11:10:21.381Z,96684.34
2017-07-14T11:12:47.239Z,96676.92
2017-07-14T11:15:13.067Z,96677.16
2017-07-14T11:17:38.882Z,96670.51
2017-07-14T11:20:11.676Z,96666.84
2017-07-14T11:22:37.522Z,96660.75
2017-07-14T11:25:03.445Z,96652.32
2017-07-14T11:27:29.322Z,96647.63
2017-07-14T11:29:55.209Z,96651.52
2017-07-14T11:32:21.045Z,96647.16
2017-07-14T11:34:46.976Z,96643.67
2017-07-14T11:37:12.868Z,96642.69
2017-07-14T11:39:38.755Z,96636.72
2017-07-14T11:42:04.614Z,96609.06
2017-07-14T11:44:30.443Z,96563.51
2017-07-14T11:46:56.270Z,96622.12
2017-07-14T11:49:22.115Z,96611.23
2017-07-14T11:51:47.915Z,96613.91
2017-07-14T11:54:13.724Z,96605.73
2017-07-14T11:56:39.597Z,96608.77
2017-07-14T11:59:05.412Z,96607.51
2017-07-14T12:01:31.257Z,96597.52
2017-07-14T12:03:57.062Z,96597.86
2017-07-14T12:06:22.999Z,96589.34
2017-07-14T12:08:48.871Z,96592.02
2017-07-14T12:11:14.674Z,96593.61
2017-07-14T12:13:47.522Z,96594.30
2017-07-14T12:16:13.339Z,96590.33
2017-07-14T12:18:39.160Z,96588.30
2017-07-14T12:21:05.124Z,96570.64
2017-07-14T12:23:31.122Z,96570.91
2017-07-14T12:25:56.943Z,96565.13
2017-07-14T12:28:22.804Z,96555.53
2017-07-14T12:30:48.721Z,96563.98
2017-07-14T12:33:14.830Z,96565.52
2017-07-14T12:35:40.763Z,96553.76
2017-07-14T12:38:06.806Z,96569.22
2017-07-14T12:40:32.873Z,96572.46
2017-07-14T12:42:58.816Z,96573.34
2017-07-14T12:45:24.653Z,96578.05
2017-07-14T12:47:52.429Z,96575.00
2017-07-14T12:50:18.377Z,96578.70
2017-07-14T12:52:44.321Z,96567.59
2017-07-14T12:55:10.143Z,96578.78
2017-07-14T12:57:36.029Z,96571.97
2017-07-14T13:00:02.075Z,96583.34
2017-07-14T13:02:28.056Z,96578.16
2017-07-14T13:04:54.421Z,96585.73
2017-07-14T13:07:20.324Z,96589.02
2017-07-14T13:09:46.310Z,96596.73
2017-07-14T13:12:12.351Z,96599.63
2017-07-14T13:14:38.272Z,96599.52
2017-07-14T13:17:04.145Z,96600.29
2017-07-14T13:19:29.991Z,96596.15
2017-07-14T13:21:56.012Z,96585.84
2017-07-14T13:24:21.866Z,96602.92
2017-07-14T13:26:47.763Z,96605.68
2017-07-14T13:29:13.704Z,96574.72
2017-07-14T13:31:39.606Z,96603.28
2017-07-14T13:34:05.426Z,96599.50
2017-07-14T13:36:31.271Z,96592.80
2017-07-14T13:38:57.086Z,96588.06
2017-07-14T13:41:22.939Z,96579.61
2017-07-14T13:43:48.725Z,96575.05
2017-07-14T13:46:14.651Z,96582.16
2017-07-14T13:48:40.562Z,96584.06
2017-07-14T13:51:06.393Z,96586.34
2017-07-14T13:53:32.235Z,96586.06
2017-07-14T13:55:58.081Z,96576.67
2017-07-14T13:58:23.906Z,96576.98
2017-07-14T14:00:49.963Z,96571.20
2017-07-14T14:03:15.951Z,96579.78
2017-07-14T14:05:41.808Z,96578.22
2017-07-14T14:08:07.720Z,96579.00
2017-07-14T14:10:33.542Z,96540.59
2017-07-14T14:12:59.390Z,96584.05
2017-07-14T14:15:25.254Z,96577.11
2017-07-14T14:17:51.309Z,96568.73
2017-07-14T14:20:17.205Z,96581.17
2017-07-14T14:22:43.125Z,96570.05
2017-07-14T14:25:08.961Z,96558.81
2017-07-14T14:27:34.870Z,96575.70
2017-07-14T14:30:00.733Z,96563.16
2017-07-14T14:32:26.556Z,96603.07
2017-07-14T14:34:52.937Z,96618.63
2017-07-14T14:37:18.849Z,96576.81
2017-07-14T14:39:44.659Z,96604.84
2017-07-14T14:42:10.511Z,96609.70
2017-07-14T14:44:36.444Z,96600.38
2017-07-14T14:47:02.261Z,96571.52
2017-07-14T14:49:28.116Z,96601.48
2017-07-14T14:51:53.928Z,96588.68
2017-07-14T14:54:19.760Z,96589.23
2017-07-14T14:56:45.813Z,96584.98
2017-07-14T14:59:11.788Z,96583.05
2017-07-14T15:01:37.624Z,96588.61
2017-07-14T15:04:03.474Z,96575.20
2017-07-14T15:06:29.326Z,96581.01
2017-07-14T15:08:55.193Z,96580.52
2017-07-14T15:11:21.106Z,96585.39
2017-07-14T15:13:46.994Z,96582.89
2017-07-14T15:16:12.957Z,96574.84
2017-07-14T15:18:38.846Z,96573.78
2017-07-14T15:21:04.730Z,96574.63
2017-07-14T15:23:30.584Z,96558.98
2017-07-14T15:25:56.431Z,96572.75
2017-07-14T15:28:22.267Z,96572.19
2017-07-14T15:30:48.295Z,96572.09
2017-07-14T15:33:14.126Z,96564.81
2017-07-14T15:35:40.060Z,96572.05
2017-07-14T15:38:05.914Z,96567.09
2017-07-14T15:40:31.787Z,96565.48
2017-07-14T15:42:57.836Z,96560.88
2017-07-14T15:45:23.733Z,96561.34
2017-07-14T15:47:49.568Z,96549.33
2017-07-14T15:50:15.472Z,96563.55
2017-07-14T15:52:41.469Z,96565.72
2017-07-14T15:55:07.276Z,96567.58
2017-07-14T15:57:33.346Z,96564.14
2017-07-14T15:59:59.248Z,96549.47
2017-07-14T16:02:25.089Z,96558.66
2017-07-14T16:04:50.908Z,96566.53
2017-07-14T16:07:16.753Z,96544.81
2017-07-14T16:09:42.626Z,96562.98
2017-07-14T16:12:08.458Z,96569.20
2017-07-14T16:14:34.390Z,96573.44
2017-07-14T16:17:00.194Z,96584.05
2017-07-14T16:19:26.055Z,96581.44
2017-07-14T16:21:51.849Z,96583.58
2017-07-14T16:24:17.768Z,96584.03
2017-07-14T16:26:43.667Z,96582.90
2017-07-14T16:29:09.513Z,96583.54
2017-07-14T16:31:35.444Z,96585.91
2017-07-14T16:34:01.358Z,96581.23
2017-07-14T16:36:27.208Z,96586.92
2017-07-14T16:38:53.032Z,96587.77
2017-07-14T16:41:18.839Z,96581.17
2017-07-14T16:43:44.668Z,96590.53
2017-07-14T16:46:10.480Z,96585.70
2017-07-14T16:48:36.310Z,96588.78
2017-07-14T16:51:02.170Z,96590.41
2017-07-14T16:53:28.068Z,96562.66
2017-07-14T16:55:53.960Z,96580.00
2017-07-14T16:58:20.018Z,96586.26
2017-07-14T17:00:45.941Z,96582.70
2017-07-14T17:03:11.796Z,96597.06
2017-07-14T17:05:37.603Z,96601.20
2017-07-14T17:08:03.507Z,96603.96
2017-07-14T17:10:29.320Z,96603.17
2017-07-14T17:12:55.149Z,96602.77
2017-07-14T17:15:21.054Z,96600.60
2017-07-14T17:17:46.910Z,96610.13
2017-07-14T17:20:12.798Z,96609.17
2017-07-14T17:22:38.828Z,96610.08
2017-07-14T17:25:04.865Z,96605.91
2017-07-14T17:27:31.197Z,96608.58
2017-07-14T17:29:57.050Z,96607.63
2017-07-14T17:32:22.874Z,96614.62
2017-07-14T17:34:48.742Z,96612.70
2017-07-14T17:37:14.664Z,96611.07
2017-07-14T17:39:40.558Z,96615.86
2017-07-14T17:42:06.385Z,96606.92
2017-07-14T17:44:32.739Z,96614.11
2017-07-14T17:46:58.557Z,96617.33
2017-07-14T17:49:24.377Z,96618.33
2017-07-14T17:51:50.786Z,96624.58
2017-07-14T17:54:16.739Z,96603.58
2017-07-14T17:56:42.603Z,96637.19
2017-07-14T17:59:08.420Z,96601.27
2017-07-14T18:01:34.269Z,96626.23
2017-07-14T18:04:00.086Z,96630.69
2017-07-14T18:06:26.005Z,96634.67
2017-07-14T18:08:51.851Z,96640.15
2017-07-14T18:11:17.656Z,96642.25
2017-07-14T18:13:43.587Z,96640.45
2017-07-14T18:16:09.392Z,96644.34
2017-07-14T18:18:35.319Z,96647.89
2017-07-14T18:21:01.139Z,96638.50
2017-07-14T18:23:27.069Z,96645.08
2017-07-14T18:25:52.877Z,96651.84
2017-07-14T18:28:18.723Z,96652.88
2017-07-14T18:30:44.572Z,96655.20
2017-07-14T18:33:10.412Z,96653.50
2017-07-14T18:35:36.233Z,96651.14
2017-07-14T18:38:02.069Z,96664.51
2017-07-14T18:40:27.984Z,96662.14
2017-07-14T18:42:54.666Z,96633.61
2017-07-14T18:45:20.484Z,96663.72
2017-07-14T18:47:47.351Z,96666.08
2017-07-14T18:50:13.190Z,96672.05
2017-07-14T18:52:38.999Z,96677.40
2017-07-14T18:55:05.808Z,96674.73
2017-07-14T18:57:31.629Z,96677.41
2017-07-14T18:59:58.249Z,96682.19
2017-07-14T19:02:24.050Z,96683.44
2017-07-14T19:04:49.894Z,96685.06
2017-07-14T19:07:16.301Z,96688.32
2017-07-14T19:09:42.141Z,96693.85
2017-07-14T19:12:07.982Z,96689.81
2017-07-14T19:14:34.771Z,96690.33
2017-07-14T19:17:00.617Z,96695.82
2017-07-14T19:19:26.434Z,96692.28
2017-07-14T19:21:52.835Z,96698.02
2017-07-14T19:24:18.681Z,96696.27
2017-07-14T19:26:44.476Z,96700.50
2017-07-14T19:29:17.179Z,96702.55
2017-07-14T19:31:43.158Z,96702.62
2017-07-14T19:34:09.753Z,96705.26
2017-07-14T19:36:35.571Z,96709.34
2017-07-14T19:39:02.495Z,96709.66
2017-07-14T19:41:29.824Z,96710.95
2017-07-14T19:43:56.318Z,96716.27
2017-07-14T19:46:22.115Z,96715.37
2017-07-14T19:48:47.919Z,96729.16
2017-07-14T19:51:14.392Z,96732.95
2017-07-14T19:53:40.250Z,96730.87
2017-07-14T19:56:06.185Z,96732.61
2017-07-14T19:58:32.102Z,96740.91
2017-07-14T20:00:58.029Z,96741.00
2017-07-14T20:03:23.905Z,96736.57
2017-07-14T20:05:49.725Z,96741.84
2017-07-14T20:08:15.545Z,96745.25
2017-07-14T20:10:41.997Z,96743.84
2017-07-14T20:13:08.848Z,96748.86
2017-07-14T20:15:34.711Z,96752.06
2017-07-14T20:18:00.612Z,96756.70
2017-07-14T20:20:27.049Z,96751.50
2017-07-14T20:22:52.964Z,96750.31
2017-07-14T20:25:18.960Z,96758.44
2017-07-14T20:27:45.715Z,96758.44
2017-07-14T20:30:12.179Z,96761.92
2017-07-14T20:32:38.056Z,96766.78
2017-07-14T20:35:03.901Z,96765.59
2017-07-14T20:37:30.675Z,96766.44
2017-07-14T20:39:56.580Z,96771.70
2017-07-14T20:42:22.506Z,96779.33
2017-07-14T20:44:48.383Z,96779.75
2017-07-14T20:47:14.350Z,96780.01
2017-07-14T20:49:40.182Z,96782.30
2017-07-14T20:52:06.096Z,96788.30
2017-07-14T20:54:32.060Z,96798.55
2017-07-14T20:56:57.908Z,96784.05
2017-07-14T20:59:23.941Z,96780.17
2017-07-14T21:01:49.836Z,96796.47
2017-07-14T21:04:15.756Z,96765.94
2017-07-14T21:06:41.611Z,96808.89
2017-07-14T21:09:07.532Z,96806.16
2017-07-14T21:11:33.387Z,96805.98
2017-07-14T21:13:59.430Z,96804.84
2017-07-14T21:16:25.305Z,96805.78
2017-07-14T21:18:51.136Z,96808.30
2017-07-14T21:21:17.035Z,96824.56
2017-07-14T21:23:42.901Z,96833.20
2017-07-14T21:26:08.951Z,96841.89
2017-07-14T21:28:34.872Z,96850.22
2017-07-14T21:31:00.736Z,96860.87
2017-07-14T21:33:26.608Z,96860.73
2017-07-14T21:35:52.645Z,96863.05
2017-07-14T21:38:18.557Z,96861.88
2017-07-14T21:40:44.425Z,96869.99
2017-07-14T21:43:10.275Z,96878.77
2017-07-14T21:45:36.327Z,96886.51
2017-07-14T21:48:02.336Z,96873.17
2017-07-14T21:50:28.257Z,96883.13
2017-07-14T21:52:54.113Z,96889.34
2017-07-14T21:55:19.934Z,96897.31
2017-07-14T21:57:45.891Z,96892.98
2017-07-14T22:00:12.869Z,96871.33
2017-07-14T22:02:38.879Z,96887.45
2017-07-14T22:05:04.840Z,96904.66
2017-07-14T22:07:30.663Z,96898.03
2017-07-14T22:09:56.545Z,96897.00
2017-07-14T22:12:22.489Z,96899.94
2017-07-14T22:14:48.384Z,96901.43
2017-07-14T22:17:14.357Z,96900.33
2017-07-14T22:19:40.195Z,96904.62
2017-07-14T22:22:06.111Z,96911.95
2017-07-14T22:24:31.968Z,96917.13
2017-07-14T22:26:57.840Z,96913.70
2017-07-14T22:29:23.745Z,96917.38
2017-07-14T22:31:49.631Z,96918.83
2017-07-14T22:34:15.547Z,96922.06
2017-07-14T22:36:41.513Z,96924.28
2017-07-14T22:39:07.352Z,96918.62
2017-07-14T22:41:33.208Z,96921.24
2017-07-14T22:43:59.131Z,96918.83
2017-07-14T22:46:25.105Z,96927.50
2017-07-14T22:48:50.972Z,96930.48
2017-07-14T22:51:16.810Z,96934.59
2017-07-14T22:53:42.680Z,96925.52
2017-07-14T22:56:08.520Z,96926.81
2017-07-14T22:58:34.485Z,96936.77
2017-07-14T23:01:00.338Z,96938.77
2017-07-14T23:03:33.229Z,96943.68
2017-07-14T23:05:59.114Z,96956.62
2017-07-14T23:08:24.998Z,96941.17
2017-07-14T23:10:50.956Z,96955.06
2017-07-14T23:13:16.772Z,96938.71
2017-07-14T23:15:42.686Z,96959.58
2017-07-14T23:18:08.621Z,96951.72
2017-07-14T23:20:34.488Z,96945.10
2017-07-14T23:23:00.348Z,96952.15
2017-07-14T23:25:26.240Z,96945.45
2017-07-14T23:27:52.138Z,96946.30
2017-07-14T23:30:18.008Z,96951.23
2017-07-14T23:32:43.900Z,96954.69
2017-07-14T23:35:09.760Z,96952.26
2017-07-14T23:37:35.593Z,96957.05
2017-07-14T23:40:01.443Z,96950.17
2017-07-14T23:42:27.508Z,96958.39
2017-07-14T23:44:53.402Z,96967.52
2017-07-14T23:47:19.220Z,96946.45
2017-07-14T23:49:45.085Z,96954.48
2017-07-14T23:52:10.931Z,96955.98
2017-07-14T23:54:36.805Z,96956.34
2017-07-14T23:57:02.694Z,96958.46
2017-07-14T23:59:28.542Z,96964.38
